Pitts, Georgia
Current Conditions -  °F | °C
As of 2:35 PM on Thursday 23 Oct 2014 (Local Time) from KCKF Reporting Station
Clear Clear  
Wind Chill: 71°   Ceiling: Unl
Heat Index: 71°   Visibility: 10mi
Dew Point: 42°   Wind: 6mph
Humidity: 34%   Direction: 320°NW
Pressure: 30.05"   Gusts: NA
Location:  31.94°N, 83.54°W
Report Text: KCKF 231835Z AUTO 32005KT 10SM CLR 22/05 A3005 RMK AO2 T02180054
Loading
Personal Weather Stations






























Interactive Weather Map
Tropical Storm Tracking
New forecast layout! Learn more

10-Day Weather Forecast

Advertisements
Track Severe Weather on mobile